Saavedra, Argentina
Current Conditions -  °F | °C
As of 3:00 AM on Saturday 25 Oct 2014 (Local Time) from SAZM Reporting Station
Moderate Fog Moderate Fog  
Wind Chill: 15°   Ceiling: Unl
Heat Index: 15°   Visibility: 0.12mi
Dew Point: 15°   Wind: 0mph
Humidity: 100%   Direction: NA
Pressure: 29.97"   Gusts: NA
Location:  37.75°S, 62.37°W
Report Text: SAZM 250600Z 00000KT 0200 FG VV/// 15/15 Q1015
Loading
Personal Weather Stations






























Interactive Weather Map
Tropical Storm Tracking
New forecast layout! Learn more

10-Day Weather Forecast

Advertisements
Track Severe Weather on mobile